Time;durP1;ratioP1;P1;durP2;ratioP2;P2;SDS_P1;SDS_P2;PMS_P1;PMS_P2;Temp;Humidity;BMP_temperature;BMP_pressure;BME280_temperature;BME280_humidity;BME280_pressure;Samples;Min_cycle;Max_cycle;Signal;HPM_P1;HPM_P2
2022/03/22 00:01:14;;;;;;;;;;;;;;;5.39;100.00;101833.75;4992363;28;19964;-62
2022/03/22 00:04:02;;;;;;;;;;;;;;;5.26;100.00;101842.03;4976369;28;19992;-62
2022/03/22 00:06:47;;;;;;;;;;;;;;;5.19;100.00;101840.06;4977995;28;20030;-61
2022/03/22 00:09:33;;;;;;;;;;;;;;;5.07;100.00;101850.16;4992032;28;20041;-62
2022/03/22 00:12:17;;;;;;;;;;;;;;;4.81;100.00;101804.56;4960341;28;19975;-65
2022/03/22 00:15:03;;;;;;;;;;;;;;;4.95;100.00;101839.22;4990116;28;20468;-62
2022/03/22 00:17:48;;;;;;;;;;;;;;;4.97;100.00;101830.53;4959527;28;19947;-60
2022/03/22 00:20:33;;;;;;;;;;;;;;;5.11;100.00;101831.03;4990771;28;19992;-62
2022/03/22 00:23:19;;;;;;;;;;;;;;;5.29;100.00;101834.25;4988861;28;20535;-62
2022/03/22 00:26:03;;;;;;;;;;;;;;;5.08;100.00;101833.53;4976177;28;19975;-61
2022/03/22 00:28:48;;;;;;;;;;;;;;;5.04;100.00;101831.66;4979149;28;19927;-62
2022/03/22 00:31:32;;;;;;;;;;;;;;;5.16;100.00;101829.44;4975354;28;20254;-67
2022/03/22 00:34:16;;;;;;;;;;;;;;;5.07;100.00;101816.84;4962532;28;19929;-62
2022/03/22 00:37:01;;;;;;;;;;;;;;;5.07;100.00;101817.69;4989360;28;20068;-62
2022/03/22 00:39:45;;;;;;;;;;;;;;;5.09;100.00;101827.44;4976417;28;20396;-62
2022/03/22 00:42:30;;;;;;;;;;;;;;;5.18;100.00;101814.59;4975223;28;19931;-61
2022/03/22 00:45:16;;;;;;;;;;;;;;;5.30;100.00;101808.88;4990011;28;19928;-64
2022/03/22 00:48:02;;;;;;;;;;;;;;;5.47;100.00;101808.59;4975906;28;20309;-63
2022/03/22 00:50:47;;;;;;;;;;;;;;;5.35;100.00;101808.19;4977076;28;19928;-66
2022/03/22 00:53:33;;;;;;;;;;;;;;;5.09;100.00;101809.03;4966290;28;20411;-60
2022/03/22 00:56:18;;;;;;;;;;;;;;;4.89;100.00;101802.19;4991096;28;19945;-61
2022/03/22 01:02:05;;;;;;;;;;;;;;;4.52;100.00;101807.84;4990640;28;19929;-62
2022/03/22 01:04:50;;;;;;;;;;;;;;;4.54;100.00;101797.41;4988944;28;19929;-63
2022/03/22 01:07:34;;;;;;;;;;;;;;;4.55;100.00;101804.47;4989778;28;19929;-62
2022/03/22 01:10:19;;;;;;;;;;;;;;;4.77;100.00;101800.03;4990226;28;20028;-62
2022/03/22 01:13:06;;;;;;;;;;;;;;;4.95;100.00;101792.78;4975596;28;20305;-61
2022/03/22 01:15:50;;;;;;;;;;;;;;;5.23;100.00;101789.38;4976055;28;19972;-61
2022/03/22 01:18:35;;;;;;;;;;;;;;;5.18;100.00;101790.91;4974025;28;19943;-67
2022/03/22 01:21:19;;;;;;;;;;;;;;;5.29;100.00;101789.53;4990519;28;20328;-62
2022/03/22 01:24:06;;;;;;;;;;;;;;;5.39;100.00;101786.41;4988555;28;20301;-62
2022/03/22 01:26:51;;;;;;;;;;;;;;;5.56;100.00;101786.91;4962538;28;19928;-62
2022/03/22 01:29:37;;;;;;;;;;;;;;;5.52;100.00;101787.66;4978650;28;20377;-61
2022/03/22 01:32:22;;;;;;;;;;;;;;;5.57;100.00;101786.09;4976678;28;20373;-62
2022/03/22 01:35:09;;;;;;;;;;;;;;;5.65;100.00;101789.88;4990399;28;19928;-62
2022/03/22 01:37:54;;;;;;;;;;;;;;;5.66;100.00;101787.25;4976872;28;19968;-63
2022/03/22 01:40:39;;;;;;;;;;;;;;;5.66;100.00;101786.38;4977366;28;20013;-61
2022/03/22 01:43:24;;;;;;;;;;;;;;;5.54;100.00;101793.88;4974100;28;20353;-63
2022/03/22 01:46:08;;;;;;;;;;;;;;;5.20;100.00;101789.25;4976543;28;19931;-61
2022/03/22 01:48:53;;;;;;;;;;;;;;;5.04;100.00;101786.94;4990853;28;19933;-63
2022/03/22 01:51:42;;;;;;;;;;;;;;;5.07;100.00;101780.91;4962384;28;19960;-65
2022/03/22 01:54:26;;;;;;;;;;;;;;;4.97;100.00;101791.09;4990061;28;19941;-62
2022/03/22 01:57:11;;;;;;;;;;;;;;;4.98;100.00;101785.00;4988139;28;19976;-61
2022/03/22 01:59:56;;;;;;;;;;;;;;;5.11;100.00;101782.78;4993103;28;19928;-62
2022/03/22 02:05:56;;;;;;;;;;;;;;;5.05;100.00;101786.09;4987815;28;19928;-62
2022/03/22 02:08:41;;;;;;;;;;;;;;;5.21;100.00;101783.16;4991413;28;19945;-63
2022/03/22 02:11:25;;;;;;;;;;;;;;;5.29;100.00;101775.53;4996011;28;19928;-63
2022/03/22 02:14:10;;;;;;;;;;;;;;;5.26;100.00;101778.03;4993563;28;19929;-68
2022/03/22 02:16:54;;;;;;;;;;;;;;;5.24;100.00;101775.38;4973047;28;19984;-62
2022/03/22 02:19:39;;;;;;;;;;;;;;;5.26;100.00;101776.28;4957847;28;19928;-62
2022/03/22 02:22:40;;;;;;;;;;;;;;;5.43;100.00;101771.59;4975034;28;19932;-63
2022/03/22 02:25:25;;;;;;;;;;;;;;;5.24;100.00;101775.38;4974416;28;19928;-67
2022/03/22 02:28:11;;;;;;;;;;;;;;;5.29;100.00;101772.91;4973890;28;20341;-62
2022/03/22 02:30:57;;;;;;;;;;;;;;;5.21;100.00;101762.09;4963590;28;19944;-62
2022/03/22 02:33:42;;;;;;;;;;;;;;;4.91;100.00;101764.59;4988899;28;19951;-63
2022/03/22 02:36:27;;;;;;;;;;;;;;;4.75;100.00;101757.03;4975006;28;20023;-61
2022/03/22 02:39:12;;;;;;;;;;;;;;;4.55;100.00;101744.91;4991867;28;19929;-62
2022/03/22 02:41:56;;;;;;;;;;;;;;;4.26;100.00;101743.00;4989124;28;20439;-65
2022/03/22 02:44:41;;;;;;;;;;;;;;;4.43;100.00;101744.47;4991771;28;19928;-63
2022/03/22 02:47:25;;;;;;;;;;;;;;;4.38;100.00;101742.53;4988290;28;19928;-62
2022/03/22 02:50:11;;;;;;;;;;;;;;;4.38;100.00;101740.81;4989815;28;20346;-62
2022/03/22 02:52:56;;;;;;;;;;;;;;;4.46;100.00;101743.69;4968105;28;19929;-62
2022/03/22 02:55:40;;;;;;;;;;;;;;;4.57;100.00;101747.59;4971992;28;20416;-62
2022/03/22 02:58:25;;;;;;;;;;;;;;;4.70;100.00;101737.59;4971272;28;19929;-62
2022/03/22 03:01:09;;;;;;;;;;;;;;;4.80;100.00;101744.06;4977872;28;19929;-68
2022/03/22 03:03:53;;;;;;;;;;;;;;;4.84;100.00;101738.94;4978260;28;20380;-62
2022/03/22 03:06:38;;;;;;;;;;;;;;;4.94;100.00;101743.69;4972270;28;19929;-63
2022/03/22 03:09:22;;;;;;;;;;;;;;;4.80;100.00;101737.03;4975702;28;19928;-63
2022/03/22 03:12:07;;;;;;;;;;;;;;;4.86;100.00;101737.25;4976353;28;19977;-62
2022/03/22 03:14:51;;;;;;;;;;;;;;;4.73;100.00;101734.16;4972398;28;19950;-61
2022/03/22 03:17:36;;;;;;;;;;;;;;;4.60;100.00;101730.19;4973655;28;19937;-62
2022/03/22 03:20:21;;;;;;;;;;;;;;;4.64;100.00;101733.84;4972771;28;19929;-62
2022/03/22 03:23:06;;;;;;;;;;;;;;;4.63;100.00;101729.44;4977359;28;20389;-61
2022/03/22 03:25:51;;;;;;;;;;;;;;;4.59;100.00;101730.19;4972112;28;19973;-71
2022/03/22 03:28:36;;;;;;;;;;;;;;;4.40;100.00;101733.00;4976450;28;20390;-62
2022/03/22 03:31:20;;;;;;;;;;;;;;;4.12;100.00;101730.19;4976461;28;20301;-61
2022/03/22 03:34:05;;;;;;;;;;;;;;;3.96;100.00;101719.97;4975259;28;20417;-62
2022/03/22 03:36:49;;;;;;;;;;;;;;;3.75;100.00;101720.03;4973314;28;19932;-63
2022/03/22 03:39:34;;;;;;;;;;;;;;;3.66;100.00;101724.94;4974048;28;20349;-62
2022/03/22 03:42:18;;;;;;;;;;;;;;;3.63;100.00;101721.28;4974152;28;19929;-62
2022/03/22 03:48:06;;;;;;;;;;;;;;;4.15;100.00;101722.41;4973611;28;19944;-61
2022/03/22 03:50:50;;;;;;;;;;;;;;;4.24;100.00;101718.41;4974973;28;19976;-61
2022/03/22 03:53:34;;;;;;;;;;;;;;;4.13;100.00;101722.38;4988557;28;19983;-66
2022/03/22 03:56:20;;;;;;;;;;;;;;;4.29;100.00;101713.31;4977563;28;19933;-61
2022/03/22 03:59:04;;;;;;;;;;;;;;;4.34;100.00;101717.00;4976264;28;19932;-62
2022/03/22 04:01:49;;;;;;;;;;;;;;;4.55;100.00;101713.41;4991858;28;19928;-62
2022/03/22 04:04:38;;;;;;;;;;;;;;;4.60;100.00;101709.19;4949522;28;20285;-62
2022/03/22 04:07:24;;;;;;;;;;;;;;;4.43;100.00;101705.09;4950922;28;19929;-61
2022/03/22 04:10:09;;;;;;;;;;;;;;;4.07;100.00;101711.66;4978041;28;19968;-63
2022/03/22 04:12:53;;;;;;;;;;;;;;;4.25;100.00;101714.06;4994132;28;19991;-68
2022/03/22 04:15:38;;;;;;;;;;;;;;;4.46;100.00;101714.81;4978302;28;19929;-61
2022/03/22 04:18:22;;;;;;;;;;;;;;;4.22;100.00;101714.84;4988259;28;19928;-63
2022/03/22 04:21:07;;;;;;;;;;;;;;;3.87;100.00;101710.00;4991478;28;19928;-62
2022/03/22 04:23:51;;;;;;;;;;;;;;;3.61;100.00;101715.09;4994347;28;20037;-62
2022/03/22 04:26:37;;;;;;;;;;;;;;;3.58;100.00;101709.75;4991004;28;19996;-62
2022/03/22 04:32:44;;;;;;;;;;;;;;;3.50;100.00;101714.69;4993967;28;19928;-61
2022/03/22 04:35:28;;;;;;;;;;;;;;;3.67;100.00;101707.47;4975686;28;19972;-61
2022/03/22 04:38:13;;;;;;;;;;;;;;;3.79;100.00;101705.31;4993119;28;20404;-62
2022/03/22 04:40:57;;;;;;;;;;;;;;;3.69;100.00;101711.06;4975919;28;20365;-62
2022/03/22 04:43:43;;;;;;;;;;;;;;;3.71;100.00;101706.75;4962508;28;19928;-62
2022/03/22 04:46:28;;;;;;;;;;;;;;;3.69;100.00;101709.31;4993401;28;20290;-61
2022/03/22 04:49:13;;;;;;;;;;;;;;;3.62;100.00;101715.16;4989389;28;19933;-70
2022/03/22 04:58:04;;;;;;;;;;;;;;;3.74;100.00;101715.63;4991189;28;19928;-62
2022/03/22 05:00:48;;;;;;;;;;;;;;;3.57;100.00;101676.47;4976646;28;19928;-63
2022/03/22 05:03:33;;;;;;;;;;;;;;;3.84;100.00;101701.16;4961685;28;19944;-61
2022/03/22 05:06:27;;;;;;;;;;;;;;;4.12;100.00;101714.44;4989567;28;20444;-67
2022/03/22 05:09:11;;;;;;;;;;;;;;;4.16;100.00;101713.72;4964994;28;19932;-62
2022/03/22 05:11:57;;;;;;;;;;;;;;;4.38;100.00;101708.38;4976760;28;20353;-62
2022/03/22 05:14:42;;;;;;;;;;;;;;;4.33;100.00;101705.63;4962463;28;20452;-60
2022/03/22 05:17:27;;;;;;;;;;;;;;;4.32;100.00;101711.69;4963934;28;19929;-64
2022/03/22 05:20:12;;;;;;;;;;;;;;;4.19;100.00;101713.81;4973585;28;20016;-65
2022/03/22 05:22:58;;;;;;;;;;;;;;;4.35;100.00;101710.91;4991223;28;20357;-63
2022/03/22 05:25:43;;;;;;;;;;;;;;;4.58;100.00;101715.22;4973895;28;19929;-61
2022/03/22 05:28:27;;;;;;;;;;;;;;;4.54;100.00;101718.59;4974709;28;19976;-62
2022/03/22 05:31:14;;;;;;;;;;;;;;;4.55;100.00;101713.41;4991123;28;19952;-63
2022/03/22 05:33:59;;;;;;;;;;;;;;;4.46;100.00;101715.72;4965259;28;20063;-63
2022/03/22 05:36:43;;;;;;;;;;;;;;;4.59;100.00;101701.28;4992412;28;20008;-62
2022/03/22 05:39:30;;;;;;;;;;;;;;;4.84;100.00;101703.91;4973408;28;19929;-70
2022/03/22 05:42:15;;;;;;;;;;;;;;;5.12;100.00;101698.69;4990047;28;20048;-61
2022/03/22 05:44:59;;;;;;;;;;;;;;;5.32;100.00;101707.22;4988236;28;19929;-63
2022/03/22 05:47:43;;;;;;;;;;;;;;;5.26;100.00;101702.66;4991376;28;19928;-63
2022/03/22 05:50:28;;;;;;;;;;;;;;;5.24;100.00;101699.09;4992598;28;19928;-63
2022/03/22 05:53:14;;;;;;;;;;;;;;;5.21;100.00;101692.84;4975690;28;19944;-63
2022/03/22 05:55:59;;;;;;;;;;;;;;;5.17;100.00;101689.22;4977205;28;19932;-62
2022/03/22 05:58:43;;;;;;;;;;;;;;;5.26;100.00;101686.00;4988188;28;19951;-66
2022/03/22 06:01:28;;;;;;;;;;;;;;;5.37;100.00;101687.22;4993829;28;19928;-62
2022/03/22 06:04:12;;;;;;;;;;;;;;;5.58;97.71;101686.13;4988122;28;19976;-62
2022/03/22 06:07:00;;;;;;;;;;;;;;;5.83;97.56;101691.34;4975181;28;20088;-63
2022/03/22 06:09:45;;;;;;;;;;;;;;;5.96;95.07;101690.84;4964039;28;20329;-63
2022/03/22 06:12:41;;;;;;;;;;;;;;;6.02;94.35;101690.13;4990675;28;19972;-63
2022/03/22 06:15:27;;;;;;;;;;;;;;;6.12;93.30;101684.25;4991057;28;19979;-63
2022/03/22 06:18:12;;;;;;;;;;;;;;;6.17;94.57;101678.28;4988882;28;20377;-62
2022/03/22 06:20:56;;;;;;;;;;;;;;;6.17;94.92;101680.91;4990815;28;20000;-65
2022/03/22 06:23:41;;;;;;;;;;;;;;;6.22;95.30;101675.78;4975288;28;20429;-63
2022/03/22 06:26:25;;;;;;;;;;;;;;;6.25;95.84;101676.75;4990462;28;19945;-74
2022/03/22 06:29:10;;;;;;;;;;;;;;;6.29;95.00;101678.59;4991967;28;20432;-63
2022/03/22 06:31:54;;;;;;;;;;;;;;;6.42;94.82;101671.94;4988110;28;19980;-65
2022/03/22 06:34:39;;;;;;;;;;;;;;;6.53;95.01;101671.34;4990185;28;19928;-62
2022/03/22 06:37:23;;;;;;;;;;;;;;;6.64;94.39;101664.63;4986832;28;19928;-63
2022/03/22 06:40:09;;;;;;;;;;;;;;;6.75;93.81;101654.34;4991870;28;19928;-62
2022/03/22 06:42:53;;;;;;;;;;;;;;;6.90;94.04;101658.28;4997522;28;19932;-62
2022/03/22 06:45:38;;;;;;;;;;;;;;;7.08;91.90;101655.22;4993244;28;19967;-63
2022/03/22 06:48:23;;;;;;;;;;;;;;;7.34;90.48;101657.59;4980272;28;19968;-63
2022/03/22 06:51:08;;;;;;;;;;;;;;;7.54;88.10;101658.03;5003746;28;19928;-73
2022/03/22 06:53:52;;;;;;;;;;;;;;;7.76;86.59;101655.88;4992928;28;19944;-63
2022/03/22 06:56:36;;;;;;;;;;;;;;;8.00;85.52;101647.59;4990564;28;20368;-61
2022/03/22 06:59:20;;;;;;;;;;;;;;;8.30;83.29;101651.75;4992993;28;19929;-64
2022/03/22 07:02:05;;;;;;;;;;;;;;;8.83;78.05;101643.03;4991367;28;20179;-61
2022/03/22 07:04:49;;;;;;;;;;;;;;;9.54;70.79;101650.31;4991785;28;19929;-62
2022/03/22 07:07:34;;;;;;;;;;;;;;;10.33;66.17;101640.75;4993271;28;19976;-65
2022/03/22 07:10:19;;;;;;;;;;;;;;;11.11;61.94;101634.41;4994996;28;19927;-73
2022/03/22 07:13:05;;;;;;;;;;;;;;;11.84;58.36;101641.09;4992549;28;19984;-62
2022/03/22 07:15:50;;;;;;;;;;;;;;;12.36;53.95;101635.97;4975597;28;19948;-62
2022/03/22 07:18:34;;;;;;;;;;;;;;;12.77;52.62;101634.25;4993520;28;19956;-65
2022/03/22 07:21:19;;;;;;;;;;;;;;;13.49;51.25;101646.69;4990495;28;19968;-62
2022/03/22 07:24:03;;;;;;;;;;;;;;;14.24;48.12;101651.75;4993166;28;20448;-62
2022/03/22 07:26:48;;;;;;;;;;;;;;;14.78;47.50;101655.88;4992403;28;20044;-62
2022/03/22 07:29:32;;;;;;;;;;;;;;;15.22;45.28;101656.41;4992366;28;19971;-71
2022/03/22 07:32:17;;;;;;;;;;;;;;;15.85;44.13;101661.16;4977498;28;19932;-62
2022/03/22 07:35:02;;;;;;;;;;;;;;;16.35;40.08;101664.13;4985164;28;19928;-62
2022/03/22 07:37:48;;;;;;;;;;;;;;;17.05;39.21;101660.41;4963162;28;19929;-63
2022/03/22 07:40:33;;;;;;;;;;;;;;;17.78;38.20;101658.22;4991232;28;20354;-62
2022/03/22 07:43:17;;;;;;;;;;;;;;;18.02;35.59;101651.47;4995651;28;20285;-62
2022/03/22 07:46:02;;;;;;;;;;;;;;;18.25;35.60;101641.13;4994429;28;20513;-62
2022/03/22 07:48:47;;;;;;;;;;;;;;;18.60;32.16;101648.44;4976606;28;19928;-71
2022/03/22 07:54:35;;;;;;;;;;;;;;;20.54;30.56;101649.50;4990451;28;19945;-66
2022/03/22 07:57:21;;;;;;;;;;;;;;;21.11;28.01;101640.44;4962641;28;19976;-70
2022/03/22 08:00:05;;;;;;;;;;;;;;;20.98;27.50;101630.09;4990455;28;20061;-63
2022/03/22 08:02:51;;;;;;;;;;;;;;;20.77;30.40;101633.47;4961692;28;19929;-61
2022/03/22 08:05:36;;;;;;;;;;;;;;;21.50;30.45;101632.78;4977095;28;19929;-63
2022/03/22 08:08:21;;;;;;;;;;;;;;;21.83;26.59;101634.31;4982020;28;20290;-63
2022/03/22 08:11:05;;;;;;;;;;;;;;;22.36;26.08;101630.50;4993008;28;20016;-62
2022/03/22 08:13:50;;;;;;;;;;;;;;;22.69;25.73;101621.09;4991537;28;20413;-62
2022/03/22 08:16:38;;;;;;;;;;;;;;;23.14;26.90;101613.75;4991540;28;19933;-70
2022/03/22 08:19:24;;;;;;;;;;;;;;;23.35;25.44;101617.44;4962709;28;19971;-63
2022/03/22 08:22:09;;;;;;;;;;;;;;;23.30;23.93;101606.78;4989234;28;19980;-66
2022/03/22 08:24:53;;;;;;;;;;;;;;;24.03;21.17;101610.75;4991195;28;19928;-60
2022/03/22 08:27:40;;;;;;;;;;;;;;;24.34;23.63;101600.22;4977061;28;19958;-61
2022/03/22 08:30:26;;;;;;;;;;;;;;;24.92;21.35;101612.75;4991779;28;20041;-62
2022/03/22 08:33:11;;;;;;;;;;;;;;;25.73;19.48;101605.81;4991993;28;19944;-65
2022/03/22 08:35:55;;;;;;;;;;;;;;;25.52;20.77;101597.91;4989602;28;20317;-63
2022/03/22 08:38:39;;;;;;;;;;;;;;;25.19;18.33;101605.03;4992582;28;19968;-63
2022/03/22 08:41:24;;;;;;;;;;;;;;;25.08;18.95;101569.44;4988744;28;19928;-62
2022/03/22 08:44:09;;;;;;;;;;;;;;;25.39;18.56;101577.75;4975547;28;19999;-64
2022/03/22 08:46:53;;;;;;;;;;;;;;;25.64;17.55;101579.09;4991579;28;20125;-63
2022/03/22 08:49:38;;;;;;;;;;;;;;;25.89;16.87;101573.22;4989884;28;20000;-63
2022/03/22 08:52:22;;;;;;;;;;;;;;;26.22;16.92;101573.25;4991101;28;19948;-63
2022/03/22 08:55:08;;;;;;;;;;;;;;;26.40;17.49;101547.72;4990266;28;20290;-75
2022/03/22 08:57:53;;;;;;;;;;;;;;;26.63;17.12;101571.81;4992927;28;20341;-62
2022/03/22 09:00:37;;;;;;;;;;;;;;;26.80;16.59;101569.88;4989004;28;19928;-62
2022/03/22 09:03:23;;;;;;;;;;;;;;;26.35;15.02;101561.59;4976878;28;20020;-63
2022/03/22 09:06:07;;;;;;;;;;;;;;;25.83;14.74;101543.69;4977681;28;19945;-63
2022/03/22 09:08:52;;;;;;;;;;;;;;;26.36;16.54;101540.69;4990340;28;20340;-62
2022/03/22 09:11:39;;;;;;;;;;;;;;;26.54;16.55;101540.50;4993011;28;19999;-63
2022/03/22 09:14:25;;;;;;;;;;;;;;;27.04;15.82;101543.91;4960126;28;19931;-64
2022/03/22 09:17:09;;;;;;;;;;;;;;;27.72;14.66;101545.19;4990431;28;19928;-65
2022/03/22 09:19:54;;;;;;;;;;;;;;;27.70;15.37;101547.13;4988850;28;19928;-63
2022/03/22 09:22:43;;;;;;;;;;;;;;;27.84;14.06;101536.28;4991652;28;19979;-63
2022/03/22 09:25:27;;;;;;;;;;;;;;;27.73;14.14;101527.84;4975704;28;19971;-66
2022/03/22 09:28:12;;;;;;;;;;;;;;;27.34;13.91;101538.50;4988776;28;19980;-65
2022/03/22 09:30:57;;;;;;;;;;;;;;;27.41;14.37;101521.66;4964083;28;19964;-65
2022/03/22 09:33:41;;;;;;;;;;;;;;;27.28;14.18;101517.94;4988586;28;20320;-62
2022/03/22 09:36:26;;;;;;;;;;;;;;;26.87;14.22;101535.00;4989567;28;20447;-63
2022/03/22 09:39:10;;;;;;;;;;;;;;;26.95;14.82;101538.13;4973989;28;20035;-63
2022/03/22 09:41:56;;;;;;;;;;;;;;;27.65;13.57;101527.47;4991706;28;20428;-62
2022/03/22 09:44:41;;;;;;;;;;;;;;;28.25;13.66;101543.56;4961436;28;19944;-63
2022/03/22 09:47:26;;;;;;;;;;;;;;;28.34;14.07;101542.06;4989617;28;19972;-75
2022/03/22 09:50:12;;;;;;;;;;;;;;;28.42;14.22;101537.03;4989723;28;20020;-62
2022/03/22 09:52:56;;;;;;;;;;;;;;;28.72;13.73;101527.66;4959771;28;19928;-63
2022/03/22 09:55:41;;;;;;;;;;;;;;;28.36;14.00;101537.41;4989582;28;19980;-64
2022/03/22 09:58:25;;;;;;;;;;;;;;;29.14;13.61;101543.03;4988619;28;20059;-63
2022/03/22 10:01:10;;;;;;;;;;;;;;;29.70;12.63;101539.13;4990331;28;19967;-63
2022/03/22 10:03:58;;;;;;;;;;;;;;;30.01;12.05;101528.59;4989764;28;19948;-62
2022/03/22 10:06:50;;;;;;;;;;;;;;;29.25;13.13;101533.13;4947088;28;19928;-70
2022/03/22 10:09:36;;;;;;;;;;;;;;;29.37;13.48;101523.19;4961363;28;20324;-62
2022/03/22 10:12:27;;;;;;;;;;;;;;;29.28;12.01;101530.16;4961016;28;19929;-62
2022/03/22 10:15:17;;;;;;;;;;;;;;;30.34;11.88;101533.50;4967214;28;19948;-64
2022/03/22 10:18:02;;;;;;;;;;;;;;;31.82;10.89;101526.50;4979768;28;19979;-63
2022/03/22 10:20:46;;;;;;;;;;;;;;;32.23;10.60;101522.13;4977429;28;19953;-64
2022/03/22 10:23:31;;;;;;;;;;;;;;;32.68;10.38;101520.22;4994056;28;19953;-63
2022/03/22 10:26:16;;;;;;;;;;;;;;;32.58;10.97;101511.00;4964438;28;20705;-63
2022/03/22 10:29:00;;;;;;;;;;;;;;;31.90;11.11;101505.69;4995013;28;19934;-63
2022/03/22 10:31:45;;;;;;;;;;;;;;;30.96;11.00;101496.81;4995327;28;20289;-62
2022/03/22 10:34:29;;;;;;;;;;;;;;;31.17;11.04;101479.53;4996049;28;20059;-67
2022/03/22 10:37:24;;;;;;;;;;;;;;;31.38;10.12;101505.31;4979834;28;19928;-63
2022/03/22 10:40:27;;;;;;;;;;;;;;;33.00;9.43;101507.41;4992499;28;20121;-63
2022/03/22 10:43:19;;;;;;;;;;;;;;;32.36;10.67;101491.84;4991364;28;19929;-63
2022/03/22 10:46:05;;;;;;;;;;;;;;;33.11;8.91;101499.97;4965658;28;19933;-63
2022/03/22 10:48:51;;;;;;;;;;;;;;;33.36;9.99;101500.63;4992924;28;19941;-62
2022/03/22 10:51:46;;;;;;;;;;;;;;;32.79;9.91;101493.56;4963720;28;19944;-71
2022/03/22 10:54:30;;;;;;;;;;;;;;;32.24;10.94;101490.91;4993924;28;19983;-64
2022/03/22 10:57:17;;;;;;;;;;;;;;;32.04;10.61;101482.59;4991218;28;19928;-61
2022/03/22 11:00:04;;;;;;;;;;;;;;;30.78;11.23;101470.81;4965370;28;20029;-62
2022/03/22 11:02:52;;;;;;;;;;;;;;;31.43;10.21;101477.50;4966460;28;19968;-62
2022/03/22 11:05:38;;;;;;;;;;;;;;;30.85;10.84;101483.06;4975460;28;20048;-66
2022/03/22 11:08:25;;;;;;;;;;;;;;;31.35;10.70;101477.25;4993051;28;19983;-64
2022/03/22 11:11:09;;;;;;;;;;;;;;;32.45;9.98;101477.31;4976818;28;19968;-64
2022/03/22 11:13:54;;;;;;;;;;;;;;;30.98;11.01;101472.88;4978647;28;19988;-64
2022/03/22 11:16:40;;;;;;;;;;;;;;;31.52;10.57;101472.16;4963821;28;20048;-64
2022/03/22 11:19:24;;;;;;;;;;;;;;;30.87;10.56;101468.22;4991822;28;19929;-70
2022/03/22 11:22:09;;;;;;;;;;;;;;;30.16;10.88;101470.03;4979123;28;19933;-64
2022/03/22 11:25:03;;;;;;;;;;;;;;;30.01;10.81;101456.59;4974409;28;19928;-64
2022/03/22 11:27:57;;;;;;;;;;;;;;;29.02;11.64;101446.41;4991545;28;19929;-64
2022/03/22 11:30:42;;;;;;;;;;;;;;;27.90;12.23;101446.75;4993213;28;19969;-65
2022/03/22 11:36:45;;;;;;;;;;;;;;;27.90;12.21;101441.31;4966051;28;20286;-66
2022/03/22 11:42:32;;;;;;;;;;;;;;;26.74;12.82;101433.25;4993368;28;19928;-62
2022/03/22 11:45:17;;;;;;;;;;;;;;;27.02;12.07;101436.03;4975013;28;20297;-62
2022/03/22 11:48:07;;;;;;;;;;;;;;;26.57;12.21;101434.19;4991449;28;19932;-63
2022/03/22 11:51:02;;;;;;;;;;;;;;;26.33;12.68;101432.94;4990659;28;19960;-62
2022/03/22 11:53:47;;;;;;;;;;;;;;;25.57;12.57;101425.53;4960594;28;20015;-62
2022/03/22 11:56:33;;;;;;;;;;;;;;;25.77;13.00;101424.41;4972494;28;20384;-63
2022/03/22 11:59:18;;;;;;;;;;;;;;;25.25;12.79;101420.94;4949431;28;20883;-63
2022/03/22 12:02:04;;;;;;;;;;;;;;;25.40;13.36;101413.81;4956974;28;19929;-63
2022/03/22 12:04:54;;;;;;;;;;;;;;;25.21;13.43;101413.91;4955179;28;19929;-63
2022/03/22 12:07:39;;;;;;;;;;;;;;;24.95;13.51;101418.97;4954058;28;19973;-64
2022/03/22 12:10:23;;;;;;;;;;;;;;;24.58;13.71;101411.84;4969463;28;19929;-64
2022/03/22 12:13:07;;;;;;;;;;;;;;;24.17;14.05;101407.63;4968768;28;20393;-63
2022/03/22 12:15:56;;;;;;;;;;;;;;;23.97;14.43;101398.72;4969296;28;19929;-61
2022/03/22 12:18:41;;;;;;;;;;;;;;;23.26;14.73;101398.53;4975151;28;20017;-63
2022/03/22 12:21:30;;;;;;;;;;;;;;;23.22;14.93;101400.47;4974983;28;19929;-72
2022/03/22 12:24:15;;;;;;;;;;;;;;;23.40;14.46;101379.78;4961463;28;19972;-61
2022/03/22 12:27:01;;;;;;;;;;;;;;;22.85;14.92;101383.22;4987413;28;19984;-62
2022/03/22 12:29:45;;;;;;;;;;;;;;;22.60;15.16;101388.88;4974528;28;19937;-62
2022/03/22 12:32:30;;;;;;;;;;;;;;;22.29;15.27;101379.38;4974748;28;19952;-63
2022/03/22 12:35:14;;;;;;;;;;;;;;;22.57;15.59;101374.59;4989547;28;19928;-64
2022/03/22 12:37:59;;;;;;;;;;;;;;;22.00;15.24;101372.50;4990781;28;19968;-63
2022/03/22 12:40:44;;;;;;;;;;;;;;;21.67;15.36;101374.72;4988788;28;19988;-73
2022/03/22 12:43:30;;;;;;;;;;;;;;;21.93;15.57;101374.59;4960885;28;19992;-62
2022/03/22 12:46:15;;;;;;;;;;;;;;;21.31;15.48;101376.16;4987067;28;19975;-64
2022/03/22 12:48:59;;;;;;;;;;;;;;;21.20;15.73;101383.78;4988938;28;20440;-64
2022/03/22 12:51:44;;;;;;;;;;;;;;;21.33;15.50;101376.09;4988877;28;20021;-64
2022/03/22 12:54:33;;;;;;;;;;;;;;;20.89;15.81;101374.16;4989541;28;20506;-63
2022/03/22 12:57:18;;;;;;;;;;;;;;;21.09;15.98;101377.03;4947363;28;19972;-67
2022/03/22 13:00:03;;;;;;;;;;;;;;;21.17;15.83;101374.94;4969606;28;19965;-64
2022/03/22 13:02:49;;;;;;;;;;;;;;;20.90;16.04;101384.00;4939838;28;20314;-61
2022/03/22 13:05:39;;;;;;;;;;;;;;;20.47;16.19;101363.09;4967918;28;20685;-61
2022/03/22 13:08:26;;;;;;;;;;;;;;;20.13;16.46;101353.53;4968544;28;19945;-64
2022/03/22 13:11:30;;;;;;;;;;;;;;;19.86;16.73;101360.66;4970020;28;20029;-63
2022/03/22 13:17:33;;;;;;;;;;;;;;;19.61;16.97;101358.78;4947630;29;20390;-65
2022/03/22 13:20:22;;;;;;;;;;;;;;;19.80;16.89;101362.66;4947078;28;19976;-72
2022/03/22 13:23:08;;;;;;;;;;;;;;;19.80;16.99;101355.50;4950653;28;20302;-64
2022/03/22 13:25:52;;;;;;;;;;;;;;;19.66;17.02;101359.56;4947152;28;19972;-62
2022/03/22 13:28:37;;;;;;;;;;;;;;;19.72;17.09;101348.56;4949839;28;20286;-65
2022/03/22 13:31:25;;;;;;;;;;;;;;;19.58;17.02;101332.88;4952154;28;20359;-63
2022/03/22 13:34:19;;;;;;;;;;;;;;;19.16;17.41;101336.88;4947353;28;19929;-71
2022/03/22 13:37:09;;;;;;;;;;;;;;;18.87;17.39;101344.03;4947368;29;19929;-63
2022/03/22 13:40:04;;;;;;;;;;;;;;;18.50;17.58;101348.63;4949780;28;20025;-62
2022/03/22 13:42:56;;;;;;;;;;;;;;;18.50;17.68;101344.16;4945448;28;19929;-63
2022/03/22 13:45:42;;;;;;;;;;;;;;;18.25;17.64;101336.75;4934980;29;19964;-62
2022/03/22 13:48:27;;;;;;;;;;;;;;;18.06;18.00;101349.78;4947506;28;19929;-63
2022/03/22 13:51:18;;;;;;;;;;;;;;;18.26;17.95;101352.84;4946708;29;20434;-72
2022/03/22 13:54:09;;;;;;;;;;;;;;;18.19;17.83;101336.94;4970346;28;20005;-63
2022/03/22 13:57:04;;;;;;;;;;;;;;;18.08;17.97;101341.69;4968211;28;20314;-62
2022/03/22 13:59:55;;;;;;;;;;;;;;;18.03;18.30;101344.50;4953360;28;19928;-71
2022/03/22 14:02:39;;;;;;;;;;;;;;;18.12;18.21;101344.28;4968158;28;19977;-62
2022/03/22 14:05:24;;;;;;;;;;;;;;;17.86;18.09;101336.88;4954358;28;19968;-64
2022/03/22 14:08:10;;;;;;;;;;;;;;;17.91;18.26;101342.09;4969493;28;19933;-63
2022/03/22 14:10:54;;;;;;;;;;;;;;;17.72;18.57;101335.41;4972260;28;19928;-63
2022/03/22 14:13:38;;;;;;;;;;;;;;;17.63;18.72;101351.75;4954673;28;20448;-64
2022/03/22 14:16:24;;;;;;;;;;;;;;;17.53;18.84;101347.53;4970492;28;20000;-62
2022/03/22 14:19:12;;;;;;;;;;;;;;;17.15;19.03;101331.38;4967061;28;19989;-64
2022/03/22 14:22:05;;;;;;;;;;;;;;;16.88;19.25;101340.00;4970018;28;19928;-65
2022/03/22 14:24:58;;;;;;;;;;;;;;;16.61;19.61;101338.75;4955054;28;19929;-64
2022/03/22 14:27:45;;;;;;;;;;;;;;;16.31;20.08;101335.75;4939901;28;20083;-63
2022/03/22 14:30:31;;;;;;;;;;;;;;;16.18;20.21;101337.75;4970784;28;19977;-61
2022/03/22 14:33:17;;;;;;;;;;;;;;;15.86;20.11;101340.09;4968098;28;19949;-62
2022/03/22 14:36:03;;;;;;;;;;;;;;;15.73;20.71;101322.50;4968165;28;19928;-62
2022/03/22 14:38:49;;;;;;;;;;;;;;;15.63;20.78;101344.91;4971360;28;19980;-63
2022/03/22 14:41:36;;;;;;;;;;;;;;;15.50;20.62;101327.31;4953133;28;20405;-65
2022/03/22 14:44:22;;;;;;;;;;;;;;;15.39;21.35;101341.75;4954305;28;19929;-64